Terminal Aerodrome Forecast
Issued by NWS

Current Version | Previous Version | Text Only | Print | Product List | Glossary On
Versions: 1 2 3 4 5 6 7 8 9 10 11 12 13 14 15 16 17 18 19 20 21 22 23
000
FTUS43 KGLD 302323
TAFMCK
TAF
KMCK 302323Z 3100/3124 09005KT P6SM VCSH SCT020 BKN070
      TEMPO 3101/3105 2SM RA BR BKN020
     FM310600 VRB04KT P6SM VCSH SCT020 OVC100
     FM310800 VRB03KT 3SM BR VCSH SCT003 OVC025
      TEMPO 3108/3112 1SM RA BR BKN002
     FM311200 07004KT 2SM BR VCSH SCT002 BKN015
      TEMPO 3112/3116 5SM -SHRA BR BKN002
     FM311600 08006KT P6SM BKN010
     FM311800 10007KT P6SM BKN035=

USA.gov is the U.S. government's official web portal to all federal, state and local government web resources and services.